Time;durP1;ratioP1;P1;durP2;ratioP2;P2;SDS_P1;SDS_P2;PMS_P1;PMS_P2;Temp;Humidity;BMP_temperature;BMP_pressure;BME280_temperature;BME280_humidity;BME280_pressure;Samples;Min_cycle;Max_cycle;Signal;HPM_P1;HPM_P2
2021/10/04 00:00:06;;;;;;;2.38;2.17;;;15.80;96.20;;;;;;5012288;28;20022;-78
2021/10/04 00:02:31;;;;;;;1.95;1.70;;;15.80;96.30;;;;;;4996497;28;20324;-78
2021/10/04 00:04:57;;;;;;;2.53;2.33;;;15.80;96.30;;;;;;4976946;28;20030;-77
2021/10/04 00:07:23;;;;;;;1.60;1.50;;;15.80;96.10;;;;;;4975227;28;20161;-76
2021/10/04 00:09:49;;;;;;;1.85;1.67;;;15.80;96.20;;;;;;4994150;28;20451;-77
2021/10/04 00:12:14;;;;;;;1.88;1.70;;;15.80;96.20;;;;;;4999415;28;20126;-77
2021/10/04 00:14:40;;;;;;;2.13;1.92;;;15.80;96.20;;;;;;4995239;28;20105;-77
2021/10/04 00:17:07;;;;;;;1.88;1.77;;;15.90;96.20;;;;;;4992692;28;20034;-78
2021/10/04 00:19:33;;;;;;;1.40;1.25;;;15.90;96.20;;;;;;5007456;28;20010;-76
2021/10/04 00:21:58;;;;;;;1.70;1.60;;;15.90;96.20;;;;;;5018629;28;20106;-76
2021/10/04 00:24:25;;;;;;;2.00;1.80;;;15.90;96.30;;;;;;5033336;28;20034;-76
2021/10/04 00:26:51;;;;;;;1.85;1.75;;;15.90;96.30;;;;;;5030760;28;20061;-76
2021/10/04 00:29:19;;;;;;;1.92;1.77;;;15.90;96.30;;;;;;5007447;28;20022;-77
2021/10/04 00:31:48;;;;;;;2.20;1.83;;;15.90;96.30;;;;;;5006246;28;20133;-76
2021/10/04 00:34:14;;;;;;;1.83;1.73;;;15.90;96.30;;;;;;5004612;28;20027;-77
2021/10/04 00:36:40;;;;;;;1.60;1.50;;;15.90;96.30;;;;;;4984598;28;20119;-77
2021/10/04 00:39:06;;;;;;;1.48;1.38;;;15.90;96.30;;;;;;4996351;28;20484;-76
2021/10/04 00:41:32;;;;;;;1.67;1.58;;;16.00;96.20;;;;;;4993463;28;20434;-77
2021/10/04 00:43:58;;;;;;;2.05;1.70;;;16.00;96.20;;;;;;4977359;28;20054;-77
2021/10/04 00:46:25;;;;;;;2.13;1.80;;;16.00;96.20;;;;;;4975558;28;20042;-77
2021/10/04 00:48:54;;;;;;;2.58;1.60;;;15.90;96.10;;;;;;4996103;28;20027;-78
2021/10/04 00:51:20;;;;;;;2.05;1.92;;;16.00;96.10;;;;;;5013417;28;20037;-77
2021/10/04 00:53:52;;;;;;;2.00;1.80;;;16.00;96.10;;;;;;5028990;28;20034;-77
2021/10/04 00:56:18;;;;;;;2.23;1.40;;;15.90;96.10;;;;;;5001137;28;20042;-78
2021/10/04 00:58:45;;;;;;;2.40;1.92;;;15.90;96.20;;;;;;5000330;28;20022;-77
2021/10/04 01:01:11;;;;;;;2.00;1.65;;;15.90;96.30;;;;;;5005252;28;20022;-78
2021/10/04 01:03:37;;;;;;;2.25;1.85;;;15.80;96.50;;;;;;5006519;28;20094;-78
2021/10/04 01:06:03;;;;;;;1.73;1.58;;;15.80;96.60;;;;;;5008713;28;20026;-78
2021/10/04 01:08:29;;;;;;;2.10;1.90;;;15.80;96.60;;;;;;5000589;28;20409;-76
2021/10/04 01:10:55;;;;;;;1.80;1.70;;;15.80;96.70;;;;;;4999223;28;20034;-77
2021/10/04 01:13:22;;;;;;;2.00;1.80;;;15.80;96.70;;;;;;5001902;28;20102;-77
2021/10/04 01:15:48;;;;;;;1.70;1.60;;;15.80;96.70;;;;;;5016208;28;20041;-77
2021/10/04 01:18:14;;;;;;;1.88;1.77;;;15.80;96.70;;;;;;5018905;28;20018;-77
2021/10/04 01:20:40;;;;;;;2.08;1.77;;;15.80;96.60;;;;;;5002000;28;20030;-77
2021/10/04 01:23:06;;;;;;;1.88;1.75;;;15.80;96.90;;;;;;5017627;28;20063;-77
2021/10/04 01:25:32;;;;;;;3.13;2.03;;;15.80;96.70;;;;;;5015650;28;20433;-78
2021/10/04 01:27:58;;;;;;;1.65;1.55;;;15.80;96.70;;;;;;5017065;28;20089;-78
2021/10/04 01:30:31;;;;;;;2.13;1.52;;;15.80;96.60;;;;;;5018440;28;20487;-78
2021/10/04 01:32:57;;;;;;;2.35;2.05;;;15.70;96.60;;;;;;5018607;28;20026;-78
2021/10/04 01:35:24;;;;;;;1.98;1.85;;;15.70;96.70;;;;;;5019121;28;20045;-77
2021/10/04 01:37:50;;;;;;;1.95;1.75;;;15.60;97.10;;;;;;5027910;28;20034;-77
2021/10/04 01:40:16;;;;;;;2.35;2.15;;;15.60;97.00;;;;;;5016481;28;20022;-76
2021/10/04 01:42:43;;;;;;;1.90;1.80;;;15.60;97.10;;;;;;4978209;28;20041;-77
2021/10/04 01:45:12;;;;;;;2.30;2.00;;;15.60;97.20;;;;;;4984431;28;20030;-78
2021/10/04 01:47:38;;;;;;;1.75;1.52;;;15.50;97.30;;;;;;5016849;28;20030;-78
2021/10/04 01:50:06;;;;;;;2.25;1.90;;;15.50;97.30;;;;;;5018657;28;20057;-78
2021/10/04 01:52:32;;;;;;;1.63;1.52;;;15.50;97.40;;;;;;5016987;28;20038;-78
2021/10/04 01:54:58;;;;;;;1.88;1.50;;;15.50;97.50;;;;;;5016550;28;20089;-77
2021/10/04 01:57:23;;;;;;;1.85;1.70;;;15.40;97.60;;;;;;5016110;28;20022;-77
2021/10/04 01:59:49;;;;;;;1.38;1.27;;;15.40;97.60;;;;;;5000511;28;20033;-77
2021/10/04 02:02:15;;;;;;;1.73;1.63;;;15.40;97.60;;;;;;5017002;28;20030;-78
2021/10/04 02:04:41;;;;;;;1.83;1.65;;;15.40;97.70;;;;;;5017869;28;20033;-77
2021/10/04 02:07:07;;;;;;;2.40;1.67;;;15.40;97.90;;;;;;5006612;28;20030;-77
2021/10/04 02:09:33;;;;;;;1.60;1.50;;;15.30;97.60;;;;;;5002111;28;20042;-77
2021/10/04 02:11:58;;;;;;;1.60;1.42;;;15.30;97.70;;;;;;5003700;28;20121;-77
2021/10/04 02:14:24;;;;;;;1.73;1.58;;;15.30;97.70;;;;;;4999475;28;20456;-77
2021/10/04 02:16:50;;;;;;;2.00;1.58;;;15.20;97.70;;;;;;4999036;28;20457;-77
2021/10/04 02:19:15;;;;;;;1.27;1.17;;;15.20;97.60;;;;;;5000676;28;20061;-76
2021/10/04 02:21:42;;;;;;;1.88;1.77;;;15.20;97.40;;;;;;5003656;28;20037;-77
2021/10/04 02:24:09;;;;;;;1.40;1.30;;;15.20;96.70;;;;;;5012725;28;20049;-77
2021/10/04 02:26:34;;;;;;;1.60;1.08;;;15.20;96.30;;;;;;5014525;28;20032;-77
2021/10/04 02:29:00;;;;;;;1.13;1.10;;;15.20;96.00;;;;;;5004099;28;20450;-77
2021/10/04 02:31:26;;;;;;;1.05;0.95;;;15.20;94.90;;;;;;4998437;28;20407;-77
2021/10/04 02:33:52;;;;;;;1.67;1.05;;;15.20;94.40;;;;;;5017860;28;20037;-77
2021/10/04 02:36:23;;;;;;;1.10;0.85;;;15.10;94.20;;;;;;5018645;28;20030;-77
2021/10/04 02:38:50;;;;;;;1.42;1.25;;;15.10;93.90;;;;;;4998856;28;20108;-77
2021/10/04 02:41:16;;;;;;;0.85;0.85;;;15.10;93.20;;;;;;5002191;28;20046;-77
2021/10/04 02:43:42;;;;;;;0.80;0.80;;;15.10;93.00;;;;;;4998077;28;20034;-77
2021/10/04 02:46:07;;;;;;;0.80;0.80;;;15.10;92.90;;;;;;5009232;28;20123;-77
2021/10/04 02:48:33;;;;;;;0.75;0.75;;;15.00;92.90;;;;;;5017543;28;20033;-77
2021/10/04 02:50:59;;;;;;;0.82;0.82;;;15.00;92.80;;;;;;5016232;28;20037;-78
2021/10/04 02:53:25;;;;;;;0.82;0.82;;;15.00;92.60;;;;;;5017416;28;20044;-78
2021/10/04 02:55:51;;;;;;;1.17;0.75;;;14.90;92.40;;;;;;5014720;28;20029;-77
2021/10/04 02:58:17;;;;;;;0.60;0.60;;;14.90;92.00;;;;;;4995698;28;20088;-77
2021/10/04 03:00:43;;;;;;;0.70;0.70;;;14.90;91.80;;;;;;4995510;28;20375;-78
2021/10/04 03:03:09;;;;;;;1.25;0.93;;;15.00;91.40;;;;;;4996152;28;20031;-76
2021/10/04 03:05:35;;;;;;;0.70;0.70;;;15.00;91.10;;;;;;4975525;28;20027;-76
2021/10/04 03:08:02;;;;;;;0.93;0.88;;;15.00;91.10;;;;;;4993792;28;20033;-76
2021/10/04 03:10:29;;;;;;;1.45;0.85;;;15.00;91.00;;;;;;4993403;28;20034;-77
2021/10/04 03:12:55;;;;;;;1.67;0.80;;;15.00;90.90;;;;;;4993899;28;20486;-77
2021/10/04 03:15:20;;;;;;;0.63;0.55;;;15.00;90.90;;;;;;4993682;28;20027;-77
2021/10/04 03:17:46;;;;;;;0.50;0.50;;;15.00;90.70;;;;;;4993339;28;20029;-77
2021/10/04 03:20:12;;;;;;;3.30;0.95;;;15.00;90.80;;;;;;4983522;28;20057;-77
2021/10/04 03:22:38;;;;;;;0.80;0.77;;;14.90;90.80;;;;;;5014866;28;20029;-77
2021/10/04 03:25:06;;;;;;;0.65;0.65;;;14.90;90.80;;;;;;5011867;28;20030;-77
2021/10/04 03:27:31;;;;;;;0.70;0.70;;;14.90;91.00;;;;;;4993489;28;20034;-78
2021/10/04 03:29:57;;;;;;;0.70;0.68;;;14.90;91.00;;;;;;4990326;28;20038;-79
2021/10/04 03:32:23;;;;;;;0.75;0.75;;;14.90;91.00;;;;;;4998017;28;20086;-77
2021/10/04 03:34:49;;;;;;;1.70;1.00;;;14.90;91.10;;;;;;4997044;28;20384;-77
2021/10/04 03:37:16;;;;;;;1.13;0.95;;;14.90;91.00;;;;;;5002490;28;20023;-77
2021/10/04 03:39:42;;;;;;;0.60;0.60;;;14.90;91.00;;;;;;5004545;28;20030;-77
2021/10/04 03:42:08;;;;;;;0.57;0.57;;;14.90;90.90;;;;;;5021495;28;20479;-77
2021/10/04 03:44:34;;;;;;;0.63;0.63;;;14.90;91.00;;;;;;5016112;28;20032;-77
2021/10/04 03:46:59;;;;;;;0.90;0.50;;;14.80;91.00;;;;;;5015676;28;20037;-78
2021/10/04 03:49:25;;;;;;;0.70;0.70;;;14.80;91.10;;;;;;5016271;28;20362;-78
2021/10/04 03:51:51;;;;;;;0.60;0.60;;;14.80;91.20;;;;;;5011919;28;20055;-77
2021/10/04 03:54:17;;;;;;;0.85;0.85;;;14.80;91.20;;;;;;5006747;28;20049;-78
2021/10/04 03:56:42;;;;;;;1.10;0.85;;;14.70;91.10;;;;;;5012691;28;20071;-78
2021/10/04 03:59:08;;;;;;;0.73;0.73;;;14.80;91.20;;;;;;5014202;28;20030;-78
2021/10/04 04:01:34;;;;;;;0.95;0.90;;;14.70;91.20;;;;;;5016537;28;20022;-78
2021/10/04 04:04:00;;;;;;;2.25;0.63;;;14.70;91.30;;;;;;5012584;28;20117;-76
2021/10/04 04:06:25;;;;;;;1.17;0.70;;;14.70;91.30;;;;;;4994318;28;20084;-77
2021/10/04 04:08:51;;;;;;;0.68;0.68;;;14.70;91.20;;;;;;5013003;28;20022;-77
2021/10/04 04:11:17;;;;;;;1.88;0.65;;;14.70;91.30;;;;;;5012456;28;20113;-77
2021/10/04 04:13:42;;;;;;;0.70;0.70;;;14.70;91.30;;;;;;5012186;28;20037;-77
2021/10/04 04:16:08;;;;;;;0.82;0.73;;;14.70;91.40;;;;;;5014454;28;20049;-77
2021/10/04 04:18:34;;;;;;;1.00;0.70;;;14.70;91.60;;;;;;5016037;28;20064;-77
2021/10/04 04:21:00;;;;;;;0.85;0.70;;;14.60;91.60;;;;;;5014493;28;20029;-76
2021/10/04 04:23:26;;;;;;;0.93;0.60;;;14.60;91.70;;;;;;5016239;28;20241;-76
2021/10/04 04:25:52;;;;;;;1.23;0.80;;;14.60;91.70;;;;;;5012111;28;20027;-77
2021/10/04 04:28:18;;;;;;;1.08;0.88;;;14.70;91.60;;;;;;5001241;28;20030;-76
2021/10/04 04:30:44;;;;;;;0.70;0.70;;;14.70;91.60;;;;;;5007240;28;20080;-77
2021/10/04 04:33:09;;;;;;;1.58;0.80;;;14.70;91.70;;;;;;4990742;28;20030;-77
2021/10/04 04:35:35;;;;;;;1.00;0.90;;;14.70;91.60;;;;;;4995429;28;20036;-77
2021/10/04 04:38:01;;;;;;;0.65;0.65;;;14.60;91.60;;;;;;5006601;28;20022;-77
2021/10/04 04:40:27;;;;;;;0.70;0.70;;;14.70;91.70;;;;;;4989731;28;20023;-77
2021/10/04 04:42:53;;;;;;;0.90;0.73;;;14.70;91.80;;;;;;5005660;28;20132;-77
2021/10/04 04:45:20;;;;;;;2.28;0.68;;;14.60;91.80;;;;;;5005419;28;20034;-77
2021/10/04 04:47:47;;;;;;;1.77;0.75;;;14.60;91.90;;;;;;5016135;28;20072;-77
2021/10/04 04:50:14;;;;;;;3.03;1.13;;;14.70;91.80;;;;;;5023996;28;20029;-77
2021/10/04 04:52:41;;;;;;;0.68;0.50;;;14.60;91.90;;;;;;5022909;28;20030;-77
2021/10/04 04:55:07;;;;;;;0.70;0.60;;;14.60;92.00;;;;;;5002375;28;20110;-77
2021/10/04 04:57:33;;;;;;;1.55;0.77;;;14.60;92.20;;;;;;5013682;28;20026;-77
2021/10/04 04:59:59;;;;;;;0.95;0.73;;;14.50;92.20;;;;;;4994369;28;20022;-77
2021/10/04 05:02:28;;;;;;;1.98;0.50;;;14.50;92.30;;;;;;5019395;28;20080;-77
2021/10/04 05:04:54;;;;;;;0.80;0.80;;;14.50;92.50;;;;;;5002226;28;20022;-77
2021/10/04 05:07:19;;;;;;;1.63;0.95;;;14.40;92.70;;;;;;5010362;28;20045;-77
2021/10/04 05:09:45;;;;;;;4.28;0.90;;;14.30;93.00;;;;;;5007725;28;20041;-77
2021/10/04 05:12:11;;;;;;;0.88;0.82;;;14.30;93.30;;;;;;5008593;28;20395;-77
2021/10/04 05:14:37;;;;;;;1.60;0.80;;;14.20;93.50;;;;;;4984550;28;20058;-77
2021/10/04 05:17:03;;;;;;;1.00;0.90;;;14.20;93.70;;;;;;4985015;28;20046;-77
2021/10/04 05:19:28;;;;;;;1.40;1.15;;;14.10;94.00;;;;;;5014212;28;20053;-77
2021/10/04 05:21:54;;;;;;;1.42;1.10;;;14.10;94.20;;;;;;5032363;28;20026;-77
2021/10/04 05:24:20;;;;;;;1.23;1.13;;;14.10;94.40;;;;;;5017314;28;20204;-77
2021/10/04 05:26:46;;;;;;;1.35;0.93;;;14.00;94.60;;;;;;5004227;28;20036;-77
2021/10/04 05:29:12;;;;;;;1.17;0.95;;;14.00;94.90;;;;;;5021704;28;20057;-77
2021/10/04 05:31:37;;;;;;;1.02;0.90;;;14.00;95.00;;;;;;5006308;28;20057;-77
2021/10/04 05:34:03;;;;;;;1.25;0.98;;;14.00;95.30;;;;;;5000134;28;20053;-77
2021/10/04 05:36:30;;;;;;;2.22;1.10;;;14.00;95.50;;;;;;5003134;28;20022;-78
2021/10/04 05:38:56;;;;;;;2.67;0.95;;;13.90;95.60;;;;;;4988657;28;20027;-77
2021/10/04 05:41:22;;;;;;;4.15;1.17;;;13.90;95.70;;;;;;4983473;28;20149;-77
2021/10/04 05:43:48;;;;;;;1.33;0.90;;;13.90;95.90;;;;;;4999842;28;20030;-78
2021/10/04 05:46:13;;;;;;;1.42;1.15;;;13.90;95.90;;;;;;5007623;23;20068;-83
2021/10/04 05:48:39;;;;;;;1.27;0.80;;;14.00;96.00;;;;;;4959774;29;20028;-82
2021/10/04 05:51:09;;;;;;;1.23;1.02;;;14.00;96.00;;;;;;4962392;28;20023;-83
2021/10/04 05:53:35;;;;;;;1.02;1.02;;;14.10;95.90;;;;;;4962799;29;20038;-82
2021/10/04 05:56:02;;;;;;;3.42;1.50;;;14.20;95.70;;;;;;4964351;28;20026;-83
2021/10/04 05:58:27;;;;;;;1.98;1.02;;;14.30;95.60;;;;;;4964143;28;20019;-82
2021/10/04 06:00:53;;;;;;;2.45;1.23;;;14.30;95.50;;;;;;4964268;28;20023;-82
2021/10/04 06:03:19;;;;;;;3.58;1.20;;;14.40;95.40;;;;;;4964001;28;20483;-83
2021/10/04 06:05:45;;;;;;;2.08;0.95;;;14.40;95.30;;;;;;4962912;28;20035;-81
2021/10/04 06:08:10;;;;;;;2.67;1.25;;;14.50;95.00;;;;;;4950306;28;20038;-83
2021/10/04 06:10:36;;;;;;;1.23;1.10;;;14.60;94.90;;;;;;4959365;29;20404;-83
2021/10/04 06:13:02;;;;;;;1.35;1.20;;;14.60;94.70;;;;;;4944840;29;20032;-82
2021/10/04 06:15:28;;;;;;;1.75;1.08;;;14.70;94.60;;;;;;4948126;29;20024;-82
2021/10/04 06:17:55;;;;;;;1.35;0.93;;;14.80;94.50;;;;;;4943541;29;20516;-82
2021/10/04 06:20:22;;;;;;;1.10;0.98;;;14.80;94.30;;;;;;4944418;29;20055;-82
2021/10/04 06:22:48;;;;;;;1.42;0.90;;;14.90;93.80;;;;;;4943867;29;20034;-82
2021/10/04 06:25:16;;;;;;;1.08;0.93;;;15.00;94.00;;;;;;4947315;29;20400;-81
2021/10/04 06:27:44;;;;;;;1.65;1.13;;;15.10;93.80;;;;;;4963004;28;20368;-82
2021/10/04 06:30:10;;;;;;;1.10;0.93;;;15.10;93.50;;;;;;4962237;28;20117;-82
2021/10/04 06:32:37;;;;;;;1.35;1.10;;;15.10;93.60;;;;;;4950918;29;20412;-82
2021/10/04 06:35:03;;;;;;;1.38;1.27;;;15.10;93.60;;;;;;4957083;28;20024;-82
2021/10/04 06:37:28;;;;;;;2.25;1.40;;;15.20;93.40;;;;;;4957669;29;20061;-83
2021/10/04 06:39:54;;;;;;;2.13;0.95;;;15.20;93.50;;;;;;4960845;28;20038;-82
2021/10/04 06:42:20;;;;;;;1.20;1.10;;;15.30;93.50;;;;;;4962801;28;20024;-79
2021/10/04 06:44:46;;;;;;;6.03;1.50;;;15.30;93.30;;;;;;4941674;29;20059;-82
2021/10/04 06:47:11;;;;;;;2.50;1.33;;;15.40;93.10;;;;;;4944833;29;20046;-82
2021/10/04 06:49:37;;;;;;;1.67;0.90;;;15.40;92.90;;;;;;4965316;29;20027;-82
2021/10/04 06:52:05;;;;;;;1.20;1.10;;;15.40;93.00;;;;;;4968440;29;20103;-82
2021/10/04 06:54:31;;;;;;;2.38;1.35;;;15.50;92.90;;;;;;4962457;28;20039;-81
2021/10/04 06:56:56;;;;;;;3.70;1.00;;;15.40;92.80;;;;;;4953929;29;20028;-80
2021/10/04 06:59:22;;;;;;;1.50;1.38;;;15.40;93.10;;;;;;4980875;28;20023;-82
2021/10/04 07:01:48;;;;;;;1.80;1.40;;;15.40;93.30;;;;;;4949761;28;20027;-83
2021/10/04 07:04:14;;;;;;;2.10;1.33;;;15.40;93.30;;;;;;4943665;29;20041;-83
2021/10/04 07:06:39;;;;;;;4.57;1.65;;;15.50;93.50;;;;;;4944566;29;20114;-83
2021/10/04 07:09:05;;;;;;;1.25;1.15;;;15.60;93.50;;;;;;4944113;29;20106;-83
2021/10/04 07:11:31;;;;;;;1.20;1.10;;;15.70;93.20;;;;;;4952953;28;20047;-80
2021/10/04 07:13:57;;;;;;;1.65;1.35;;;15.90;93.00;;;;;;4957331;29;20071;-81
2021/10/04 07:16:23;;;;;;;1.50;1.33;;;16.00;92.40;;;;;;4952817;29;20028;-83
2021/10/04 07:18:49;;;;;;;2.03;1.33;;;16.10;92.40;;;;;;4958691;29;20023;-82
2021/10/04 07:21:15;;;;;;;1.67;1.40;;;16.20;92.20;;;;;;4961930;29;20033;-82
2021/10/04 07:23:44;;;;;;;1.55;1.45;;;16.40;92.00;;;;;;4962335;28;20416;-83
2021/10/04 07:26:12;;;;;;;3.40;1.92;;;16.60;91.20;;;;;;4960139;28;20031;-81
2021/10/04 07:28:38;;;;;;;4.15;1.73;;;16.60;91.00;;;;;;4964896;28;20038;-82
2021/10/04 07:31:04;;;;;;;2.22;1.50;;;16.50;90.80;;;;;;4987655;28;20015;-81
2021/10/04 07:33:30;;;;;;;2.33;1.65;;;16.50;90.80;;;;;;4974097;28;20130;-82
2021/10/04 07:35:55;;;;;;;1.65;1.17;;;16.50;91.30;;;;;;4956529;28;20063;-83
2021/10/04 07:38:23;;;;;;;1.13;1.08;;;16.60;90.50;;;;;;4942243;28;20020;-83
2021/10/04 07:40:49;;;;;;;1.80;1.48;;;16.60;90.40;;;;;;4943421;29;20023;-82
2021/10/04 07:43:15;;;;;;;1.25;1.15;;;16.60;90.70;;;;;;4942959;29;20032;-83
2021/10/04 07:45:41;;;;;;;2.45;1.70;;;16.70;90.30;;;;;;4943099;29;20033;-83
2021/10/04 07:48:07;;;;;;;3.72;1.65;;;16.80;90.00;;;;;;4960773;29;20111;-79
2021/10/04 07:50:33;;;;;;;1.83;1.10;;;16.70;90.00;;;;;;4968678;29;20034;-81
2021/10/04 07:53:00;;;;;;;1.25;1.15;;;16.60;90.60;;;;;;4974100;28;20122;-80
2021/10/04 07:55:25;;;;;;;1.52;1.42;;;16.60;90.80;;;;;;4974710;28;20062;-82
2021/10/04 07:57:51;;;;;;;1.80;1.38;;;16.60;90.40;;;;;;4960281;28;20040;-81
2021/10/04 08:00:21;;;;;;;2.17;1.60;;;16.40;90.80;;;;;;4961449;29;20018;-80
2021/10/04 08:02:47;;;;;;;1.30;1.20;;;16.40;90.80;;;;;;4974905;28;20114;-80
2021/10/04 08:05:14;;;;;;;1.77;1.63;;;16.20;90.90;;;;;;4974731;28;20058;-81
2021/10/04 08:07:40;;;;;;;3.88;1.10;;;16.20;91.00;;;;;;4964680;29;20036;-79
2021/10/04 08:10:08;;;;;;;1.42;1.00;;;16.10;91.10;;;;;;4955706;29;20047;-82
2021/10/04 08:12:34;;;;;;;2.63;1.40;;;16.10;91.30;;;;;;4969667;29;20043;-79
2021/10/04 08:15:01;;;;;;;1.05;0.82;;;16.00;91.60;;;;;;4954817;29;20030;-80
2021/10/04 08:17:26;;;;;;;1.45;1.13;;;16.00;91.50;;;;;;4957130;29;20056;-80
2021/10/04 08:19:52;;;;;;;1.75;1.10;;;16.00;91.70;;;;;;4965751;28;20039;-79
2021/10/04 08:22:18;;;;;;;2.47;1.30;;;16.00;91.40;;;;;;4975129;28;20024;-80
2021/10/04 08:24:44;;;;;;;1.75;1.20;;;16.00;91.40;;;;;;4967408;28;20044;-78
2021/10/04 08:27:10;;;;;;;2.03;1.00;;;16.00;91.40;;;;;;4936773;29;20039;-78
2021/10/04 08:29:37;;;;;;;1.48;1.38;;;15.90;91.40;;;;;;4952526;29;20052;-79
2021/10/04 08:32:04;;;;;;;1.42;1.33;;;16.00;91.40;;;;;;4965195;29;20031;-80
2021/10/04 08:34:29;;;;;;;3.40;1.35;;;16.10;91.60;;;;;;4955613;29;20028;-79
2021/10/04 08:36:55;;;;;;;1.58;1.48;;;16.10;91.60;;;;;;4954769;29;20104;-79
2021/10/04 08:39:21;;;;;;;1.48;1.38;;;16.10;91.40;;;;;;4971960;28;20016;-80
2021/10/04 08:41:48;;;;;;;1.27;1.10;;;16.00;91.90;;;;;;4956242;29;20092;-80
2021/10/04 08:44:14;;;;;;;2.35;1.52;;;16.00;91.70;;;;;;4955712;29;20007;-78
2021/10/04 08:46:44;;;;;;;1.27;1.15;;;16.00;91.80;;;;;;4958113;29;20028;-80
2021/10/04 08:49:12;;;;;;;1.33;1.02;;;15.90;92.30;;;;;;4967968;29;20008;-80
2021/10/04 08:51:38;;;;;;;2.38;1.52;;;15.80;92.50;;;;;;4974294;28;20027;-81
2021/10/04 08:54:06;;;;;;;1.88;1.40;;;15.80;92.50;;;;;;4956129;28;20028;-79
2021/10/04 08:56:33;;;;;;;1.40;1.30;;;15.80;92.80;;;;;;4969530;29;20054;-78
2021/10/04 08:58:58;;;;;;;4.00;1.20;;;15.70;93.10;;;;;;4954466;29;20052;-80
2021/10/04 09:01:24;;;;;;;1.20;1.10;;;15.60;92.90;;;;;;4967363;29;20039;-79
2021/10/04 09:03:59;;;;;;;1.40;1.20;;;15.60;93.10;;;;;;4974803;28;20082;-79
2021/10/04 09:06:32;;;;;;;2.85;1.10;;;15.60;93.40;;;;;;4973613;28;20126;-79
2021/10/04 09:09:03;;;;;;;1.45;1.13;;;15.50;93.20;;;;;;4955965;29;20032;-79
2021/10/04 09:11:42;;;;;;;2.25;1.13;;;15.50;93.40;;;;;;4968230;28;20095;-79
2021/10/04 09:14:16;;;;;;;3.08;1.30;;;15.40;93.80;;;;;;4980112;28;20039;-79
2021/10/04 09:17:00;;;;;;;1.42;1.15;;;15.40;93.60;;;;;;4979341;28;20027;-80
2021/10/04 09:19:32;;;;;;;2.83;1.30;;;15.40;93.50;;;;;;4978798;28;20079;-79
2021/10/04 09:22:11;;;;;;;2.13;1.38;;;15.40;93.20;;;;;;4976721;28;20012;-79
2021/10/04 09:24:42;;;;;;;1.55;1.30;;;15.40;93.40;;;;;;4958563;29;20023;-81
2021/10/04 09:27:33;;;;;;;2.00;1.55;;;15.30;93.50;;;;;;4972496;29;20012;-79
2021/10/04 09:30:16;;;;;;;3.97;1.70;;;15.30;93.90;;;;;;4958448;29;20035;-77
2021/10/04 09:32:48;;;;;;;1.65;1.25;;;15.30;93.70;;;;;;4967174;29;20042;-79
2021/10/04 09:35:29;;;;;;;3.38;1.40;;;15.20;93.70;;;;;;4973781;28;20020;-81
2021/10/04 09:38:14;;;;;;;2.00;1.67;;;15.20;93.70;;;;;;4969757;29;20027;-82
2021/10/04 09:40:41;;;;;;;1.42;1.33;;;15.20;93.70;;;;;;4966045;29;20118;-83
2021/10/04 09:43:25;;;;;;;1.77;1.10;;;15.20;93.70;;;;;;4948256;29;20023;-81
2021/10/04 09:46:05;;;;;;;4.50;1.60;;;15.10;93.90;;;;;;4962293;29;20032;-81
2021/10/04 09:48:31;;;;;;;1.23;1.00;;;15.10;93.90;;;;;;4957337;28;20114;-80
2021/10/04 09:51:11;;;;;;;2.03;1.33;;;15.10;94.00;;;;;;4946458;28;20063;-81
2021/10/04 09:53:36;;;;;;;2.22;1.30;;;15.10;93.70;;;;;;4958519;29;20027;-80
2021/10/04 09:56:02;;;;;;;1.38;1.27;;;15.10;93.80;;;;;;4945201;29;20097;-83
2021/10/04 09:58:32;;;;;;;1.55;1.20;;;15.00;93.80;;;;;;4946346;29;20103;-83
2021/10/04 10:01:03;;;;;;;3.40;1.50;;;15.00;94.00;;;;;;4947358;29;20024;-82
2021/10/04 10:03:37;;;;;;;3.95;1.77;;;15.00;93.60;;;;;;4964101;29;20094;-81
2021/10/04 10:06:03;;;;;;;1.25;1.08;;;15.00;93.60;;;;;;4989073;28;20032;-79
2021/10/04 10:08:29;;;;;;;1.90;1.45;;;15.00;93.70;;;;;;4978764;28;20043;-80
2021/10/04 10:11:00;;;;;;;1.45;1.05;;;15.00;93.70;;;;;;4972084;28;20079;-81
2021/10/04 10:13:29;;;;;;;1.73;1.27;;;15.10;93.70;;;;;;4975818;28;20047;-82
2021/10/04 10:16:00;;;;;;;3.28;1.10;;;15.20;93.60;;;;;;4974802;28;20083;-80
2021/10/04 10:18:40;;;;;;;1.85;1.15;;;15.20;93.40;;;;;;4968407;29;20034;-81
2021/10/04 10:21:07;;;;;;;2.33;1.23;;;15.20;93.40;;;;;;4964358;28;20031;-82
2021/10/04 10:23:49;;;;;;;0.95;0.95;;;15.30;93.50;;;;;;4968354;28;20120;-82
2021/10/04 10:26:41;;;;;;;0.80;0.80;;;15.30;93.60;;;;;;4936398;29;20035;-83
2021/10/04 10:29:16;;;;;;;1.63;1.30;;;15.30;93.60;;;;;;4944186;29;20039;-83
2021/10/04 10:31:51;;;;;;;1.17;1.05;;;15.40;92.60;;;;;;4947553;29;20024;-81
2021/10/04 10:34:42;;;;;;;1.55;1.15;;;15.50;92.70;;;;;;4948174;29;20024;-83
2021/10/04 10:37:27;;;;;;;2.65;1.20;;;15.60;92.40;;;;;;4947334;29;20016;-82
2021/10/04 10:40:11;;;;;;;2.83;1.00;;;15.50;92.60;;;;;;4949975;29;20079;-83
2021/10/04 10:42:41;;;;;;;1.65;1.50;;;15.40;92.90;;;;;;4966348;28;20063;-83
2021/10/04 10:45:10;;;;;;;2.17;1.27;;;15.50;92.30;;;;;;4961102;28;20020;-83
2021/10/04 10:47:36;;;;;;;3.35;1.30;;;15.50;92.60;;;;;;4947178;29;20032;-80
2021/10/04 10:50:15;;;;;;;2.90;1.70;;;15.40;92.80;;;;;;4956927;28;20036;-80
2021/10/04 10:52:46;;;;;;;2.58;1.00;;;15.40;92.60;;;;;;4964625;28;20031;-82
2021/10/04 10:55:18;;;;;;;1.63;1.05;;;15.40;92.50;;;;;;4961441;28;20170;-81
2021/10/04 10:57:54;;;;;;;2.75;1.65;;;15.40;92.60;;;;;;4966223;28;20473;-82
2021/10/04 11:00:23;;;;;;;1.45;1.20;;;15.30;92.60;;;;;;4978743;28;20023;-82
2021/10/04 11:03:14;;;;;;;2.78;0.98;;;15.20;92.90;;;;;;4980734;28;20038;-80
2021/10/04 11:05:39;;;;;;;1.27;1.17;;;15.10;93.20;;;;;;4955330;28;20031;-82
2021/10/04 11:08:24;;;;;;;0.95;0.90;;;15.10;93.60;;;;;;4945972;29;20035;-81
2021/10/04 11:10:49;;;;;;;1.63;1.20;;;15.10;93.90;;;;;;4944402;29;20437;-82
2021/10/04 11:13:28;;;;;;;1.65;1.25;;;15.10;93.80;;;;;;4950473;29;20038;-82
2021/10/04 11:16:01;;;;;;;1.77;1.38;;;15.10;93.60;;;;;;4966258;28;20023;-82
2021/10/04 11:18:53;;;;;;;;;;;15.10;93.70;;;;;;4948231;29;20075;-83
2021/10/04 11:21:23;;;;;;;1.40;1.30;;;15.10;93.70;;;;;;4962564;29;19910;-80
2021/10/04 11:23:54;;;;;;;1.50;1.40;;;15.00;93.90;;;;;;4971588;28;20103;-78
2021/10/04 11:26:22;;;;;;;3.53;1.40;;;15.10;93.80;;;;;;4970864;28;20032;-79
2021/10/04 11:28:52;;;;;;;1.10;1.00;;;15.10;94.00;;;;;;4939251;29;20127;-82
2021/10/04 11:31:30;;;;;;;0.90;0.90;;;15.10;94.10;;;;;;4954101;29;20092;-83
2021/10/04 11:34:08;;;;;;;0.95;0.95;;;15.00;94.30;;;;;;4946140;29;20032;-83
2021/10/04 11:36:56;;;;;;;2.10;1.23;;;15.00;94.70;;;;;;4960196;29;20086;-82
2021/10/04 11:39:42;;;;;;;2.13;1.00;;;15.00;94.20;;;;;;4947499;29;20034;-80
2021/10/04 11:42:09;;;;;;;3.17;1.30;;;15.10;94.50;;;;;;4946620;29;20030;-82
2021/10/04 11:44:45;;;;;;;1.60;1.20;;;15.10;94.10;;;;;;4949542;29;20024;-83
2021/10/04 11:47:13;;;;;;;3.45;1.00;;;15.20;94.10;;;;;;4981803;23;20100;-78
2021/10/04 11:49:44;;;;;;;2.38;1.20;;;15.20;94.00;;;;;;4989654;28;20029;-77
2021/10/04 11:52:16;;;;;;;1.20;1.10;;;15.20;93.80;;;;;;4985377;28;20023;-77
2021/10/04 11:54:46;;;;;;;1.20;1.10;;;15.30;93.50;;;;;;4979491;28;20066;-78
2021/10/04 11:57:21;;;;;;;0.80;0.80;;;15.40;93.40;;;;;;4985220;28;20026;-77
2021/10/04 11:59:53;;;;;;;1.38;1.02;;;15.50;92.70;;;;;;4997672;28;20027;-77
2021/10/04 12:02:20;;;;;;;;;;;15.50;92.70;;;;;;4996491;28;20074;-77
2021/10/04 12:04:46;;;;;;;0.93;0.90;;;15.40;93.10;;;;;;4978266;28;19956;-77
2021/10/04 12:07:12;;;;;;;1.02;0.93;;;15.40;92.50;;;;;;4995313;28;20030;-76
2021/10/04 12:09:38;;;;;;;6.07;1.40;;;15.50;92.50;;;;;;4979099;28;20184;-77
2021/10/04 12:12:05;;;;;;;1.77;1.15;;;15.50;92.60;;;;;;4997944;28;20026;-77
2021/10/04 12:14:35;;;;;;;1.20;1.10;;;15.60;92.30;;;;;;4979008;28;20029;-77
2021/10/04 12:17:03;;;;;;;4.93;1.00;;;15.60;92.10;;;;;;4995344;28;20047;-76
2021/10/04 12:19:29;;;;;;;1.27;0.73;;;15.60;92.20;;;;;;5004986;28;20022;-77
2021/10/04 12:21:55;;;;;;;1.00;0.90;;;15.50;91.80;;;;;;5007676;28;20134;-77
2021/10/04 12:24:24;;;;;;;1.05;0.93;;;15.40;92.10;;;;;;4977834;28;20081;-77
2021/10/04 12:26:57;;;;;;;2.67;0.80;;;15.30;92.60;;;;;;4995226;28;20026;-77
2021/10/04 12:29:34;;;;;;;1.92;1.35;;;15.20;92.70;;;;;;4978562;28;20030;-77
2021/10/04 12:32:35;;;;;;;0.98;0.70;;;15.10;93.10;;;;;;4994296;28;20047;-77
2021/10/04 12:35:26;;;;;;;0.90;0.90;;;15.10;93.20;;;;;;4995131;28;20026;-77
2021/10/04 12:37:57;;;;;;;5.35;1.05;;;15.00;93.40;;;;;;4997100;28;20502;-77
2021/10/04 12:40:25;;;;;;;1.60;0.87;;;14.90;93.50;;;;;;4978093;28;20042;-77
2021/10/04 12:42:52;;;;;;;1.58;0.90;;;14.90;93.50;;;;;;4996755;28;20022;-77
2021/10/04 12:45:18;;;;;;;3.80;1.00;;;15.00;93.10;;;;;;4977194;28;20479;-77
2021/10/04 12:48:15;;;;;;;4.35;1.10;;;14.90;93.10;;;;;;4981313;28;20041;-77
2021/10/04 12:50:43;;;;;;;0.98;0.63;;;14.90;93.50;;;;;;4997098;28;20045;-77
2021/10/04 12:53:13;;;;;;;2.40;1.30;;;14.80;93.40;;;;;;4999419;28;20076;-77